Hyrum, Utah
Current Conditions -  °F | °C
As of 5:51 PM on Wednesday 17 Dec 2014 (Local Time) from KLGU Reporting Station
Few Clouds Few Clouds  
Wind Chill: 31°   Ceiling: Unl
Heat Index: 35°   Visibility: 10mi
Dew Point: 28°   Wind: 5mph
Humidity: 76%   Direction: 190°S
Pressure: 29.99"   Gusts: NA
Location:  41.63°N, 111.85°W
Report Text: KLGU 180051Z AUTO 19004KT 10SM FEW065 02/M02 A2999 RMK AO2 SLP169 T00171022
Loading
Personal Weather Stations






























Interactive Weather Map New forecast layout! Learn more

10-Day Weather Forecast

Advertisements
Track Severe Weather on mobile